Time,TemperatureF,DewpointF,PressureIn,WindDirection,WindDirectionDegrees,WindSpeedMPH,WindSpeedGustMPH,Humidity,HourlyPrecipIn,Conditions,Clouds,dailyrainin,SoftwareType,DateUTC
2013-06-23 00:12:00,41.0,36.0,-100.00,NE,35,4.0,5.0,81,-99.99,,,0.00,,2013-06-23 06:12:00,
2013-06-23 00:22:00,41.0,36.0,-100.00,NE,35,4.0,5.0,81,-99.99,,,0.00,,2013-06-23 06:22:00,
2013-06-23 01:01:00,37.0,34.0,-100.00,NNE,30,4.0,5.0,88,-99.99,,,0.00,,2013-06-23 07:01:00,
2013-06-23 01:12:00,38.0,34.0,-100.00,NNE,25,1.0,4.0,86,-99.99,,,0.00,,2013-06-23 07:12:00,
2013-06-23 01:22:00,38.0,34.0,-100.00,NNE,25,1.0,4.0,86,-99.99,,,0.00,,2013-06-23 07:22:00,
2013-06-23 01:34:00,37.0,34.0,-100.00,NNE,30,4.0,5.0,88,-99.99,,,0.00,,2013-06-23 07:34:00,
2013-06-23 01:43:00,37.0,34.0,-100.00,NNE,30,4.0,5.0,88,-99.99,,,0.00,,2013-06-23 07:43:00,
2013-06-23 01:53:00,37.0,34.0,-100.00,NNE,30,4.0,5.0,88,-99.99,,,0.00,,2013-06-23 07:53:00,
2013-06-23 02:02:00,36.0,33.0,-100.00,NNE,30,3.0,4.0,90,-99.99,,,0.00,,2013-06-23 08:02:00,
2013-06-23 02:22:00,36.0,33.0,-100.00,NE,35,2.0,4.0,89,-99.99,,,0.00,,2013-06-23 08:22:00,
2013-06-23 02:32:00,36.0,33.0,-100.00,NE,40,4.0,6.0,90,-99.99,,,0.00,,2013-06-23 08:32:00,
2013-06-23 02:33:00,36.0,33.0,-100.00,NNE,30,3.0,4.0,90,-99.99,,,0.00,,2013-06-23 08:33:00,
2013-06-23 02:43:00,36.0,33.0,-100.00,NNE,30,3.0,4.0,90,-99.99,,,0.00,,2013-06-23 08:43:00,
2013-06-23 02:53:00,36.0,33.0,-100.00,NNE,30,3.0,4.0,90,-99.99,,,0.00,,2013-06-23 08:53:00,
2013-06-23 03:12:00,36.0,33.0,-100.00,NE,40,4.0,6.0,90,-99.99,,,0.00,,2013-06-23 09:12:00,
2013-06-23 03:22:00,36.0,33.0,-100.00,NE,40,4.0,6.0,90,-99.99,,,0.00,,2013-06-23 09:22:00,
2013-06-23 04:22:00,35.0,33.0,-100.00,NNE,25,1.0,3.0,90,-99.99,,,0.00,,2013-06-23 10:22:00,
2013-06-23 04:34:00,34.0,32.0,-100.00,NE,40,4.0,5.0,90,-99.99,,,0.00,,2013-06-23 10:34:00,
2013-06-23 04:43:00,34.0,32.0,-100.00,NE,40,4.0,5.0,90,-99.99,,,0.00,,2013-06-23 10:43:00,
2013-06-23 04:52:00,34.0,32.0,-100.00,NE,40,4.0,5.0,90,-99.99,,,0.00,,2013-06-23 10:52:00,
2013-06-23 05:01:00,34.0,32.0,-100.00,NE,40,4.0,5.0,90,-99.99,,,0.00,,2013-06-23 11:01:00,
2013-06-23 05:11:00,34.0,32.0,-100.00,NE,35,1.0,3.0,90,-99.99,,,0.00,,2013-06-23 11:11:00,
2013-06-23 05:22:00,34.0,32.0,-100.00,NE,35,1.0,3.0,90,-99.99,,,0.00,,2013-06-23 11:22:00,
2013-06-23 05:33:00,34.0,32.0,-100.00,NE,45,3.0,4.0,90,-99.99,,,0.00,,2013-06-23 11:33:00,
2013-06-23 05:43:00,34.0,32.0,-100.00,NE,45,3.0,4.0,90,-99.99,,,0.00,,2013-06-23 11:43:00,
2013-06-23 05:53:00,34.0,32.0,-100.00,NNE,15,2.0,4.0,90,-99.99,,,0.00,,2013-06-23 11:53:00,
2013-06-23 06:01:00,34.0,32.0,-100.00,NNE,15,2.0,4.0,90,-99.99,,,0.00,,2013-06-23 12:01:00,
2013-06-23 06:11:00,34.0,31.0,-100.00,NE,40,2.0,3.0,90,-99.99,,,0.00,,2013-06-23 12:11:00,
2013-06-23 06:22:00,34.0,31.0,-100.00,NE,40,2.0,3.0,90,-99.99,,,0.00,,2013-06-23 12:22:00,
2013-06-23 06:33:00,34.0,32.0,-100.00,NE,40,2.0,4.0,90,-99.99,,,0.00,,2013-06-23 12:33:00,
2013-06-23 06:42:00,34.0,32.0,-100.00,NE,40,2.0,4.0,90,-99.99,,,0.00,,2013-06-23 12:42:00,
2013-06-23 06:53:00,34.0,31.0,-100.00,NE,45,3.0,3.0,90,-99.99,,,0.00,,2013-06-23 12:53:00,
2013-06-23 07:01:00,34.0,31.0,-100.00,NE,45,3.0,3.0,90,-99.99,,,0.00,,2013-06-23 13:01:00,
2013-06-23 07:11:00,36.0,33.0,-100.00,NE,45,3.0,4.0,89,-99.99,,,0.00,,2013-06-23 13:11:00,
2013-06-23 07:23:00,36.0,33.0,-100.00,NE,45,3.0,4.0,89,-99.99,,,0.00,,2013-06-23 13:23:00,
2013-06-23 07:31:00,41.0,34.0,-100.00,East,80,0.0,1.0,77,-99.99,,,0.00,,2013-06-23 13:31:00,
2013-06-23 07:33:00,38.0,33.0,-100.00,NE,40,3.0,4.0,84,-99.99,,,0.00,,2013-06-23 13:33:00,
2013-06-23 07:43:00,38.0,33.0,-100.00,NE,40,3.0,4.0,84,-99.99,,,0.00,,2013-06-23 13:43:00,
2013-06-23 08:01:00,41.0,35.0,-100.00,SW,215,1.0,3.0,80,-99.99,,,0.00,,2013-06-23 14:01:00,
2013-06-23 08:22:00,41.0,34.0,-100.00,East,80,0.0,1.0,77,-99.99,,,0.00,,2013-06-23 14:22:00,
2013-06-23 08:44:00,41.0,35.0,-100.00,SW,215,1.0,3.0,80,-99.99,,,0.00,,2013-06-23 14:44:00,
2013-06-23 08:52:00,41.0,35.0,-100.00,SW,215,1.0,3.0,80,-99.99,,,0.00,,2013-06-23 14:52:00,
2013-06-23 09:01:00,52.0,37.0,-100.00,WNW,300,0.0,1.0,56,-99.99,,,0.00,,2013-06-23 15:01:00,
2013-06-23 09:22:00,47.0,38.0,-100.00,NW,325,0.0,1.0,73,-99.99,,,0.00,,2013-06-23 15:22:00,
2013-06-23 09:43:00,52.0,37.0,-100.00,WNW,300,0.0,1.0,56,-99.99,,,0.00,,2013-06-23 15:43:00,
2013-06-23 09:52:00,52.0,37.0,-100.00,WNW,300,0.0,1.0,56,-99.99,,,0.00,,2013-06-23 15:52:00,
2013-06-23 10:01:00,53.0,36.0,-100.00,SW,230,3.0,8.0,52,-99.99,,,0.00,,2013-06-23 16:01:00,
2013-06-23 10:11:00,53.0,37.0,-100.00,WSW,255,1.0,5.0,55,-99.99,,,0.00,,2013-06-23 16:11:00,
2013-06-23 10:22:00,53.0,37.0,-100.00,WSW,255,1.0,5.0,55,-99.99,,,0.00,,2013-06-23 16:22:00,
2013-06-23 10:36:00,53.0,36.0,-100.00,SW,230,3.0,8.0,52,-99.99,,,0.00,,2013-06-23 16:36:00,
2013-06-23 10:42:00,53.0,36.0,-100.00,SW,230,3.0,8.0,52,-99.99,,,0.00,,2013-06-23 16:42:00,
2013-06-23 10:52:00,53.0,36.0,-100.00,SW,230,3.0,8.0,52,-99.99,,,0.00,,2013-06-23 16:52:00,
2013-06-23 11:01:00,55.0,35.0,-100.00,NW,325,4.0,6.0,47,-99.99,,,0.00,,2013-06-23 17:01:00,
2013-06-23 11:11:00,55.0,36.0,-100.00,NW,310,5.0,8.0,49,-99.99,,,0.00,,2013-06-23 17:11:00,
2013-06-23 11:22:00,55.0,36.0,-100.00,NW,310,5.0,8.0,49,-99.99,,,0.00,,2013-06-23 17:22:00,
2013-06-23 11:33:00,55.0,35.0,-100.00,NW,325,4.0,6.0,47,-99.99,,,0.00,,2013-06-23 17:33:00,
2013-06-23 11:43:00,55.0,35.0,-100.00,NW,325,4.0,6.0,47,-99.99,,,0.00,,2013-06-23 17:43:00,
2013-06-23 11:52:00,55.0,35.0,-100.00,NW,325,4.0,6.0,47,-99.99,,,0.00,,2013-06-23 17:52:00,
2013-06-23 12:11:00,57.0,35.0,-100.00,NW,320,3.0,6.0,43,-99.99,,,0.00,,2013-06-23 18:11:00,
2013-06-23 12:22:00,57.0,35.0,-100.00,NW,320,3.0,6.0,43,-99.99,,,0.00,,2013-06-23 18:22:00,
2013-06-23 12:34:00,58.0,38.0,-100.00,WSW,245,5.0,8.0,47,-99.99,,,0.00,,2013-06-23 18:34:00,
2013-06-23 12:43:00,58.0,38.0,-100.00,WSW,245,5.0,8.0,47,-99.99,,,0.00,,2013-06-23 18:43:00,
2013-06-23 12:53:00,58.0,38.0,-100.00,WSW,245,5.0,8.0,47,-99.99,,,0.00,,2013-06-23 18:53:00,
2013-06-23 13:01:00,58.0,38.0,-100.00,WSW,245,5.0,8.0,47,-99.99,,,0.00,,2013-06-23 19:01:00,
2013-06-23 13:11:00,59.0,36.0,-100.00,WSW,255,3.0,8.0,42,-99.99,,,0.00,,2013-06-23 19:11:00,
2013-06-23 13:21:00,59.0,36.0,-100.00,WSW,255,3.0,8.0,42,-99.99,,,0.00,,2013-06-23 19:21:00,
2013-06-23 13:32:00,59.0,35.0,-100.00,West,260,4.0,10.0,41,-99.99,,,-99.99,,2013-06-23 19:32:00,
2013-06-23 13:43:00,59.0,39.0,-100.00,West,260,5.0,10.0,47,-99.99,,,0.00,,2013-06-23 19:43:00,
2013-06-23 13:53:00,59.0,39.0,-100.00,West,260,5.0,10.0,47,-99.99,,,0.00,,2013-06-23 19:53:00,
2013-06-23 14:01:00,60.0,36.0,-100.00,West,275,6.0,14.0,41,-99.99,,,0.00,,2013-06-23 20:01:00,
2013-06-23 14:33:00,60.0,36.0,-100.00,West,275,6.0,14.0,41,-99.99,,,0.00,,2013-06-23 20:33:00,
2013-06-23 14:42:00,60.0,36.0,-100.00,West,275,6.0,14.0,41,-99.99,,,0.00,,2013-06-23 20:42:00,
2013-06-23 14:52:00,60.0,36.0,-100.00,West,275,6.0,14.0,41,-99.99,,,0.00,,2013-06-23 20:52:00,
2013-06-23 15:01:00,61.0,34.0,-100.00,SW,220,6.0,9.0,36,-99.99,,,0.00,,2013-06-23 21:01:00,
2013-06-23 15:22:00,63.0,34.0,-100.00,WNW,290,3.0,11.0,34,-99.99,,,0.00,,2013-06-23 21:22:00,
2013-06-23 15:33:00,61.0,34.0,-100.00,SW,220,6.0,9.0,36,-99.99,,,0.00,,2013-06-23 21:33:00,
2013-06-23 15:44:00,61.0,34.0,-100.00,SW,220,6.0,9.0,36,-99.99,,,0.00,,2013-06-23 21:44:00,
2013-06-23 15:52:00,61.0,34.0,-100.00,SW,220,6.0,9.0,36,-99.99,,,0.00,,2013-06-23 21:52:00,
2013-06-23 16:01:00,61.0,32.0,-100.00,SW,220,12.0,17.0,33,-99.99,,,0.00,,2013-06-23 22:01:00,
2013-06-23 16:11:00,61.0,30.0,-100.00,SW,230,8.0,16.0,31,-99.99,,,0.00,,2013-06-23 22:11:00,
2013-06-23 16:22:00,61.0,30.0,-100.00,SW,230,8.0,16.0,31,-99.99,,,0.00,,2013-06-23 22:22:00,
2013-06-23 16:32:00,61.0,32.0,-100.00,SW,220,12.0,17.0,33,-99.99,,,0.00,,2013-06-23 22:32:00,
2013-06-23 16:43:00,61.0,32.0,-100.00,SW,220,12.0,17.0,33,-99.99,,,0.00,,2013-06-23 22:43:00,
2013-06-23 16:53:00,61.0,32.0,-100.00,SW,220,12.0,17.0,33,-99.99,,,0.00,,2013-06-23 22:53:00,
2013-06-23 17:01:00,63.0,33.0,-100.00,WSW,245,6.0,11.0,32,-99.99,,,0.00,,2013-06-23 23:01:00,
2013-06-23 17:11:00,63.0,34.0,-100.00,SW,225,4.0,12.0,34,-99.99,,,0.00,,2013-06-23 23:11:00,
2013-06-23 17:22:00,63.0,34.0,-100.00,SW,225,4.0,12.0,34,-99.99,,,0.00,,2013-06-23 23:22:00,
2013-06-23 17:33:00,63.0,33.0,-100.00,WSW,245,6.0,11.0,32,-99.99,,,0.00,,2013-06-23 23:33:00,
2013-06-23 17:44:00,63.0,33.0,-100.00,WSW,245,6.0,11.0,32,-99.99,,,0.00,,2013-06-23 23:44:00,
2013-06-23 17:52:00,63.0,33.0,-100.00,WSW,245,6.0,11.0,32,-99.99,,,0.00,,2013-06-23 23:52:00,
2013-06-23 18:01:00,63.0,34.0,-100.00,West,280,6.0,11.0,34,-99.99,,,0.00,,2013-06-24 00:01:00,
2013-06-23 18:11:00,63.0,35.0,-100.00,West,275,8.0,10.0,35,-99.99,,,0.00,,2013-06-24 00:11:00,
2013-06-23 18:22:00,63.0,35.0,-100.00,West,275,8.0,10.0,35,-99.99,,,0.00,,2013-06-24 00:22:00,
2013-06-23 18:33:00,63.0,34.0,-100.00,West,280,6.0,11.0,34,-99.99,,,0.00,,2013-06-24 00:33:00,
2013-06-23 18:42:00,63.0,34.0,-100.00,West,280,6.0,11.0,34,-99.99,,,0.00,,2013-06-24 00:42:00,
2013-06-23 18:52:00,63.0,34.0,-100.00,West,280,6.0,11.0,34,-99.99,,,0.00,,2013-06-24 00:52:00,
2013-06-23 19:01:00,63.0,36.0,-100.00,WNW,285,1.0,2.0,36,-99.99,,,0.00,,2013-06-24 01:01:00,
2013-06-23 19:11:00,62.0,34.0,-100.00,West,260,4.0,7.0,35,-99.99,,,0.00,,2013-06-24 01:11:00,
2013-06-23 19:22:00,62.0,34.0,-100.00,West,260,4.0,7.0,35,-99.99,,,0.00,,2013-06-24 01:22:00,
2013-06-23 19:32:00,63.0,36.0,-100.00,WNW,285,1.0,2.0,36,-99.99,,,0.00,,2013-06-24 01:32:00,
2013-06-23 19:42:00,63.0,36.0,-100.00,WNW,285,1.0,2.0,36,-99.99,,,0.00,,2013-06-24 01:42:00,
2013-06-23 19:52:00,63.0,36.0,-100.00,WNW,285,1.0,2.0,36,-99.99,,,0.00,,2013-06-24 01:52:00,
2013-06-23 20:11:00,61.0,39.0,-100.00,WSW,250,1.0,3.0,43,-99.99,,,0.00,,2013-06-24 02:11:00,
2013-06-23 20:22:00,61.0,39.0,-100.00,WSW,250,1.0,3.0,43,-99.99,,,0.00,,2013-06-24 02:22:00,
2013-06-23 20:33:00,61.0,41.0,-100.00,SE,145,2.0,3.0,48,-99.99,,,0.00,,2013-06-24 02:33:00,
2013-06-23 20:42:00,61.0,41.0,-100.00,SE,145,2.0,3.0,48,-99.99,,,0.00,,2013-06-24 02:42:00,
2013-06-23 20:53:00,59.0,41.0,-100.00,East,85,1.0,3.0,51,-99.99,,,0.00,,2013-06-24 02:53:00,
2013-06-23 21:01:00,59.0,41.0,-100.00,East,85,1.0,3.0,51,-99.99,,,0.00,,2013-06-24 03:01:00,
2013-06-23 21:11:00,59.0,42.0,-100.00,ESE,115,1.0,2.0,53,-99.99,,,0.00,,2013-06-24 03:11:00,
2013-06-23 21:22:00,59.0,42.0,-100.00,ESE,115,1.0,2.0,53,-99.99,,,0.00,,2013-06-24 03:22:00,
2013-06-23 21:33:00,57.0,39.0,-100.00,South,185,2.0,3.0,51,-99.99,,,0.00,,2013-06-24 03:33:00,
2013-06-23 21:43:00,57.0,39.0,-100.00,South,185,2.0,3.0,51,-99.99,,,0.00,,2013-06-24 03:43:00,
2013-06-23 21:53:00,56.0,42.0,-100.00,ESE,110,3.0,4.0,58,-99.99,,,0.00,,2013-06-24 03:53:00,
2013-06-23 22:01:00,56.0,42.0,-100.00,ESE,110,3.0,4.0,58,-99.99,,,0.00,,2013-06-24 04:01:00,
2013-06-23 22:11:00,56.0,41.0,-100.00,ESE,115,3.0,6.0,57,-99.99,,,0.00,,2013-06-24 04:11:00,
2013-06-23 22:22:00,56.0,41.0,-100.00,ESE,115,3.0,6.0,57,-99.99,,,0.00,,2013-06-24 04:22:00,
2013-06-23 22:33:00,56.0,41.0,-100.00,ENE,65,2.0,4.0,58,-99.99,,,0.00,,2013-06-24 04:33:00,
2013-06-23 22:43:00,56.0,41.0,-100.00,ENE,65,2.0,4.0,58,-99.99,,,0.00,,2013-06-24 04:43:00,
2013-06-23 22:53:00,56.0,41.0,-100.00,ENE,65,2.0,4.0,58,-99.99,,,0.00,,2013-06-24 04:53:00,
2013-06-23 23:02:00,54.0,43.0,-100.00,SSE,155,1.0,2.0,65,-99.99,,,0.00,,2013-06-24 05:02:00,
2013-06-23 23:12:00,54.0,43.0,-100.00,NE,40,3.0,3.0,66,-99.99,,,0.00,,2013-06-24 05:12:00,
2013-06-23 23:22:00,54.0,43.0,-100.00,NE,40,3.0,3.0,66,-99.99,,,0.00,,2013-06-24 05:22:00,
2013-06-23 23:46:00,54.0,43.0,-100.00,SSE,155,1.0,2.0,65,-99.99,,,0.00,,2013-06-24 05:46:00,
2013-06-23 23:53:00,54.0,43.0,-100.00,SSE,155,1.0,2.0,65,-99.99,,,0.00,,2013-06-24 05:53:00,